sensor_id;sensor_type;location;lat;lon;timestamp;pressure;altitude;pressure_sealevel;temperature;humidity
44765;BME280;30484;52.382;5.260;2022-09-29T00:01:35;100110.44;;;11.58;100.00
44765;BME280;30484;52.382;5.260;2022-09-29T00:04:04;100103.91;;;11.63;100.00
44765;BME280;30484;52.382;5.260;2022-09-29T00:06:34;100101.56;;;11.58;100.00
44765;BME280;30484;52.382;5.260;2022-09-29T00:09:03;100102.22;;;11.62;100.00
44765;BME280;30484;52.382;5.260;2022-09-29T00:11:32;100105.00;;;11.60;100.00
44765;BME280;30484;52.382;5.260;2022-09-29T00:14:03;100098.44;;;11.51;100.00
44765;BME280;30484;52.382;5.260;2022-09-29T00:16:32;100096.94;;;11.47;100.00
44765;BME280;30484;52.382;5.260;2022-09-29T00:19:01;100099.34;;;11.37;100.00
44765;BME280;30484;52.382;5.260;2022-09-29T00:21:31;100106.50;;;11.37;100.00
44765;BME280;30484;52.382;5.260;2022-09-29T00:24:00;100109.19;;;11.37;100.00
44765;BME280;30484;52.382;5.260;2022-09-29T00:26:29;100104.50;;;11.40;100.00
44765;BME280;30484;52.382;5.260;2022-09-29T00:29:00;100106.41;;;11.38;100.00
44765;BME280;30484;52.382;5.260;2022-09-29T00:31:32;100106.13;;;11.43;100.00
44765;BME280;30484;52.382;5.260;2022-09-29T00:34:01;100105.34;;;11.41;100.00
44765;BME280;30484;52.382;5.260;2022-09-29T00:36:33;100108.97;;;11.40;100.00
44765;BME280;30484;52.382;5.260;2022-09-29T00:39:01;100107.53;;;11.49;100.00
44765;BME280;30484;52.382;5.260;2022-09-29T00:41:33;100104.59;;;11.39;100.00
44765;BME280;30484;52.382;5.260;2022-09-29T00:44:04;100117.81;;;11.28;100.00
44765;BME280;30484;52.382;5.260;2022-09-29T00:46:44;100115.34;;;11.25;100.00
44765;BME280;30484;52.382;5.260;2022-09-29T00:49:18;100103.34;;;11.17;100.00
44765;BME280;30484;52.382;5.260;2022-09-29T00:51:55;100111.41;;;11.16;100.00
44765;BME280;30484;52.382;5.260;2022-09-29T00:54:30;100117.66;;;11.16;100.00
44765;BME280;30484;52.382;5.260;2022-09-29T00:57:04;100114.09;;;11.16;100.00
44765;BME280;30484;52.382;5.260;2022-09-29T00:59:46;100103.72;;;11.11;100.00
44765;BME280;30484;52.382;5.260;2022-09-29T01:02:19;100107.38;;;11.10;100.00
44765;BME280;30484;52.382;5.260;2022-09-29T01:04:51;100119.09;;;11.08;100.00
44765;BME280;30484;52.382;5.260;2022-09-29T01:07:22;100111.34;;;11.03;100.00
44765;BME280;30484;52.382;5.260;2022-09-29T01:09:55;100107.94;;;11.01;100.00
44765;BME280;30484;52.382;5.260;2022-09-29T01:12:24;100113.13;;;10.75;100.00
44765;BME280;30484;52.382;5.260;2022-09-29T01:14:54;100117.22;;;10.81;100.00
44765;BME280;30484;52.382;5.260;2022-09-29T01:17:27;100125.72;;;10.73;100.00
44765;BME280;30484;52.382;5.260;2022-09-29T01:20:05;100124.56;;;10.63;100.00
44765;BME280;30484;52.382;5.260;2022-09-29T01:23:34;100126.09;;;10.67;100.00
44765;BME280;30484;52.382;5.260;2022-09-29T01:30:03;100126.00;;;10.68;100.00
44765;BME280;30484;52.382;5.260;2022-09-29T01:32:56;100126.56;;;10.74;100.00
44765;BME280;30484;52.382;5.260;2022-09-29T01:35:33;100121.78;;;10.79;100.00
44765;BME280;30484;52.382;5.260;2022-09-29T01:38:19;100129.16;;;10.75;100.00
44765;BME280;30484;52.382;5.260;2022-09-29T01:40:53;100124.66;;;10.76;100.00
44765;BME280;30484;52.382;5.260;2022-09-29T01:43:34;100124.47;;;10.79;100.00
44765;BME280;30484;52.382;5.260;2022-09-29T01:46:10;100124.38;;;10.80;100.00
44765;BME280;30484;52.382;5.260;2022-09-29T01:48:46;100116.19;;;10.83;100.00
44765;BME280;30484;52.382;5.260;2022-09-29T01:51:23;100123.41;;;10.81;100.00
44765;BME280;30484;52.382;5.260;2022-09-29T01:53:57;100127.22;;;10.77;100.00
44765;BME280;30484;52.382;5.260;2022-09-29T01:56:32;100127.63;;;10.71;100.00
44765;BME280;30484;52.382;5.260;2022-09-29T01:59:09;100129.59;;;10.53;100.00
44765;BME280;30484;52.382;5.260;2022-09-29T02:01:42;100127.13;;;10.64;100.00
44765;BME280;30484;52.382;5.260;2022-09-29T02:04:20;100126.09;;;10.67;100.00
44765;BME280;30484;52.382;5.260;2022-09-29T02:06:56;100130.59;;;10.52;100.00
44765;BME280;30484;52.382;5.260;2022-09-29T02:09:33;100133.56;;;10.62;100.00
44765;BME280;30484;52.382;5.260;2022-09-29T02:12:03;100135.63;;;10.57;100.00
44765;BME280;30484;52.382;5.260;2022-09-29T02:14:36;100127.34;;;10.61;100.00
44765;BME280;30484;52.382;5.260;2022-09-29T02:17:11;100133.81;;;10.57;100.00
44765;BME280;30484;52.382;5.260;2022-09-29T02:19:51;100131.34;;;10.54;100.00
44765;BME280;30484;52.382;5.260;2022-09-29T02:22:21;100133.91;;;10.41;100.00
44765;BME280;30484;52.382;5.260;2022-09-29T02:24:52;100120.84;;;10.51;100.00
44765;BME280;30484;52.382;5.260;2022-09-29T02:27:23;100134.28;;;10.49;100.00
44765;BME280;30484;52.382;5.260;2022-09-29T02:29:56;100124.28;;;10.53;100.00
44765;BME280;30484;52.382;5.260;2022-09-29T02:32:27;100126.09;;;10.52;100.00
44765;BME280;30484;52.382;5.260;2022-09-29T02:34:58;100129.69;;;10.37;100.00
44765;BME280;30484;52.382;5.260;2022-09-29T02:37:42;100133.66;;;10.30;100.00
44765;BME280;30484;52.382;5.260;2022-09-29T02:40:18;100138.06;;;10.31;100.00
44765;BME280;30484;52.382;5.260;2022-09-29T02:43:10;100133.41;;;10.34;100.00
44765;BME280;30484;52.382;5.260;2022-09-29T02:45:56;100129.69;;;10.37;100.00
44765;BME280;30484;52.382;5.260;2022-09-29T02:48:51;100131.63;;;10.35;100.00
44765;BME280;30484;52.382;5.260;2022-09-29T02:51:28;100129.19;;;10.30;100.00
44765;BME280;30484;52.382;5.260;2022-09-29T02:54:17;100130.25;;;10.28;100.00
44765;BME280;30484;52.382;5.260;2022-09-29T02:56:57;100126.78;;;10.26;100.00
44765;BME280;30484;52.382;5.260;2022-09-29T02:59:39;100122.31;;;10.26;100.00
44765;BME280;30484;52.382;5.260;2022-09-29T03:02:09;100122.22;;;10.28;100.00
44765;BME280;30484;52.382;5.260;2022-09-29T03:04:38;100126.13;;;10.22;100.00
44765;BME280;30484;52.382;5.260;2022-09-29T03:07:09;100122.22;;;10.13;100.00
44765;BME280;30484;52.382;5.260;2022-09-29T03:09:38;100131.59;;;9.74;100.00
44765;BME280;30484;52.382;5.260;2022-09-29T03:12:09;100137.72;;;9.76;100.00
44765;BME280;30484;52.382;5.260;2022-09-29T03:14:37;100138.75;;;10.04;100.00
44765;BME280;30484;52.382;5.260;2022-09-29T03:17:06;100133.72;;;10.14;100.00
44765;BME280;30484;52.382;5.260;2022-09-29T03:19:35;100132.88;;;10.13;100.00
44765;BME280;30484;52.382;5.260;2022-09-29T03:22:05;100129.25;;;10.14;100.00
44765;BME280;30484;52.382;5.260;2022-09-29T03:24:35;100133.22;;;10.07;100.00
44765;BME280;30484;52.382;5.260;2022-09-29T03:27:04;100128.69;;;10.09;100.00
44765;BME280;30484;52.382;5.260;2022-09-29T03:29:33;100122.75;;;10.04;100.00
44765;BME280;30484;52.382;5.260;2022-09-29T03:32:02;100133.59;;;10.01;100.00
44765;BME280;30484;52.382;5.260;2022-09-29T03:34:31;100136.56;;;9.96;100.00
44765;BME280;30484;52.382;5.260;2022-09-29T03:37:00;100135.69;;;9.96;100.00
44765;BME280;30484;52.382;5.260;2022-09-29T03:39:28;100150.34;;;9.89;100.00
44765;BME280;30484;52.382;5.260;2022-09-29T03:42:00;100142.38;;;10.03;100.00
44765;BME280;30484;52.382;5.260;2022-09-29T03:44:29;100139.44;;;10.08;100.00
44765;BME280;30484;52.382;5.260;2022-09-29T03:46:58;100139.34;;;10.09;100.00
44765;BME280;30484;52.382;5.260;2022-09-29T03:49:27;100145.63;;;10.08;100.00
44765;BME280;30484;52.382;5.260;2022-09-29T03:51:55;100146.31;;;10.12;100.00
44765;BME280;30484;52.382;5.260;2022-09-29T03:54:25;100143.72;;;10.10;100.00
44765;BME280;30484;52.382;5.260;2022-09-29T03:56:55;100141.16;;;10.09;100.00
44765;BME280;30484;52.382;5.260;2022-09-29T03:59:26;100143.44;;;10.00;100.00
44765;BME280;30484;52.382;5.260;2022-09-29T04:01:56;100142.38;;;10.03;100.00
44765;BME280;30484;52.382;5.260;2022-09-29T04:04:25;100139.13;;;9.98;100.00
44765;BME280;30484;52.382;5.260;2022-09-29T04:06:58;100147.22;;;9.96;100.00
44765;BME280;30484;52.382;5.260;2022-09-29T04:09:27;100151.69;;;9.96;100.00
44765;BME280;30484;52.382;5.260;2022-09-29T04:11:56;100148.91;;;9.97;100.00
44765;BME280;30484;52.382;5.260;2022-09-29T04:14:29;100155.31;;;9.95;100.00
44765;BME280;30484;52.382;5.260;2022-09-29T04:17:00;100156.38;;;9.92;100.00
44765;BME280;30484;52.382;5.260;2022-09-29T04:19:29;100158.00;;;9.95;100.00
44765;BME280;30484;52.382;5.260;2022-09-29T04:21:57;100158.94;;;9.94;100.00
44765;BME280;30484;52.382;5.260;2022-09-29T04:24:26;100165.75;;;9.83;100.00
44765;BME280;30484;52.382;5.260;2022-09-29T04:26:55;100172.41;;;9.76;100.00
44765;BME280;30484;52.382;5.260;2022-09-29T04:29:24;100170.31;;;9.81;100.00
44765;BME280;30484;52.382;5.260;2022-09-29T04:31:54;100160.44;;;9.83;100.00
44765;BME280;30484;52.382;5.260;2022-09-29T04:34:24;100164.06;;;9.66;100.00
44765;BME280;30484;52.382;5.260;2022-09-29T04:36:52;100170.50;;;9.78;100.00
44765;BME280;30484;52.382;5.260;2022-09-29T04:39:21;100174.72;;;9.82;100.00
44765;BME280;30484;52.382;5.260;2022-09-29T04:41:50;100168.34;;;9.85;100.00
44765;BME280;30484;52.382;5.260;2022-09-29T04:44:19;100166.53;;;9.85;100.00
44765;BME280;30484;52.382;5.260;2022-09-29T04:46:52;100170.31;;;9.81;100.00
44765;BME280;30484;52.382;5.260;2022-09-29T04:49:21;100175.47;;;9.84;100.00
44765;BME280;30484;52.382;5.260;2022-09-29T04:51:50;100171.19;;;9.82;100.00
44765;BME280;30484;52.382;5.260;2022-09-29T04:54:19;100176.78;;;9.77;100.00
44765;BME280;30484;52.382;5.260;2022-09-29T04:56:48;100182.28;;;9.74;100.00
44765;BME280;30484;52.382;5.260;2022-09-29T04:59:17;100194.06;;;9.70;100.00
44765;BME280;30484;52.382;5.260;2022-09-29T05:01:48;100185.03;;;9.73;100.00
44765;BME280;30484;52.382;5.260;2022-09-29T05:04:19;100196.16;;;9.65;100.00
44765;BME280;30484;52.382;5.260;2022-09-29T05:06:48;100193.03;;;9.73;100.00
44765;BME280;30484;52.382;5.260;2022-09-29T05:09:17;100183.59;;;9.67;100.00
44765;BME280;30484;52.382;5.260;2022-09-29T05:11:52;100185.03;;;9.73;100.00
44765;BME280;30484;52.382;5.260;2022-09-29T05:14:21;100185.50;;;9.65;100.00
44765;BME280;30484;52.382;5.260;2022-09-29T05:16:54;100184.28;;;9.71;100.00
44765;BME280;30484;52.382;5.260;2022-09-29T05:19:26;100187.81;;;9.71;100.00
44765;BME280;30484;52.382;5.260;2022-09-29T05:21:55;100192.09;;;9.74;100.00
44765;BME280;30484;52.382;5.260;2022-09-29T05:24:26;100197.88;;;9.82;100.00
44765;BME280;30484;52.382;5.260;2022-09-29T05:26:56;100193.13;;;9.71;100.00
44765;BME280;30484;52.382;5.260;2022-09-29T05:29:25;100194.25;;;9.67;100.00
44765;BME280;30484;52.382;5.260;2022-09-29T05:31:56;100192.19;;;9.72;100.00
44765;BME280;30484;52.382;5.260;2022-09-29T05:34:29;100192.94;;;9.74;100.00
44765;BME280;30484;52.382;5.260;2022-09-29T05:36:58;100199.22;;;9.73;100.00
44765;BME280;30484;52.382;5.260;2022-09-29T05:39:27;100188.75;;;9.70;100.00
44765;BME280;30484;52.382;5.260;2022-09-29T05:41:58;100197.72;;;9.69;100.00
44765;BME280;30484;52.382;5.260;2022-09-29T05:44:26;100204.75;;;9.70;100.00
44765;BME280;30484;52.382;5.260;2022-09-29T05:46:59;100208.72;;;9.63;100.00
44765;BME280;30484;52.382;5.260;2022-09-29T05:49:34;100203.56;;;9.60;100.00
44765;BME280;30484;52.382;5.260;2022-09-29T05:52:02;100214.22;;;9.60;100.00
44765;BME280;30484;52.382;5.260;2022-09-29T05:54:31;100215.25;;;9.57;100.00
44765;BME280;30484;52.382;5.260;2022-09-29T05:57:00;100228.66;;;9.56;100.00
44765;BME280;30484;52.382;5.260;2022-09-29T05:59:30;100229.00;;;9.65;100.00
44765;BME280;30484;52.382;5.260;2022-09-29T06:01:59;100235.72;;;9.57;100.00
44765;BME280;30484;52.382;5.260;2022-09-29T06:04:30;100237.94;;;9.64;100.00
44765;BME280;30484;52.382;5.260;2022-09-29T06:07:07;100249.50;;;9.65;100.00
44765;BME280;30484;52.382;5.260;2022-09-29T06:09:37;100247.16;;;9.59;100.00
44765;BME280;30484;52.382;5.260;2022-09-29T06:12:06;100243.72;;;9.57;100.00
44765;BME280;30484;52.382;5.260;2022-09-29T06:14:35;100253.50;;;9.56;100.00
44765;BME280;30484;52.382;5.260;2022-09-29T06:17:05;100251.56;;;9.60;100.00
44765;BME280;30484;52.382;5.260;2022-09-29T06:19:35;100257.06;;;9.57;100.00
44765;BME280;30484;52.382;5.260;2022-09-29T06:22:10;100261.38;;;9.59;100.00
44765;BME280;30484;52.382;5.260;2022-09-29T06:24:41;100252.56;;;9.73;100.00
44765;BME280;30484;52.382;5.260;2022-09-29T06:27:10;100247.41;;;9.70;100.00
44765;BME280;30484;52.382;5.260;2022-09-29T06:29:39;100253.53;;;9.88;100.00
44765;BME280;30484;52.382;5.260;2022-09-29T06:32:07;100255.75;;;9.96;100.00
44765;BME280;30484;52.382;5.260;2022-09-29T06:34:39;100264.00;;;10.07;100.00
44765;BME280;30484;52.382;5.260;2022-09-29T06:37:28;100259.69;;;10.05;100.00
44765;BME280;30484;52.382;5.260;2022-09-29T06:40:04;100269.25;;;10.25;100.00
44765;BME280;30484;52.382;5.260;2022-09-29T06:42:37;100264.94;;;10.38;100.00
44765;BME280;30484;52.382;5.260;2022-09-29T06:45:10;100266.19;;;10.47;100.00
44765;BME280;30484;52.382;5.260;2022-09-29T06:47:39;100266.78;;;10.52;100.00
44765;BME280;30484;52.382;5.260;2022-09-29T06:50:09;100282.81;;;10.52;100.00
44765;BME280;30484;52.382;5.260;2022-09-29T06:52:45;100281.91;;;10.67;100.00
44765;BME280;30484;52.382;5.260;2022-09-29T06:55:29;100282.88;;;10.81;100.00
44765;BME280;30484;52.382;5.260;2022-09-29T06:57:59;100281.25;;;10.78;100.00
44765;BME280;30484;52.382;5.260;2022-09-29T07:00:31;100294.44;;;10.96;100.00
44765;BME280;30484;52.382;5.260;2022-09-29T07:03:01;100289.88;;;10.98;100.00
44765;BME280;30484;52.382;5.260;2022-09-29T07:05:31;100288.66;;;11.32;100.00
44765;BME280;30484;52.382;5.260;2022-09-29T07:08:00;100290.47;;;11.46;100.00
44765;BME280;30484;52.382;5.260;2022-09-29T07:10:30;100292.38;;;11.44;100.00
44765;BME280;30484;52.382;5.260;2022-09-29T07:13:00;100290.66;;;11.43;100.00
44765;BME280;30484;52.382;5.260;2022-09-29T07:15:29;100301.44;;;11.70;100.00
44765;BME280;30484;52.382;5.260;2022-09-29T07:18:00;100302.56;;;11.95;100.00
44765;BME280;30484;52.382;5.260;2022-09-29T07:20:32;100302.81;;;12.05;100.00
44765;BME280;30484;52.382;5.260;2022-09-29T07:23:01;100303.56;;;11.92;100.00
44765;BME280;30484;52.382;5.260;2022-09-29T07:25:30;100303.03;;;12.29;100.00
44765;BME280;30484;52.382;5.260;2022-09-29T07:28:18;100301.19;;;12.30;100.00
44765;BME280;30484;52.382;5.260;2022-09-29T07:30:58;100307.16;;;12.20;100.00
44765;BME280;30484;52.382;5.260;2022-09-29T07:33:40;100309.28;;;12.42;100.00
44765;BME280;30484;52.382;5.260;2022-09-29T07:36:12;100314.19;;;12.76;100.00
44765;BME280;30484;52.382;5.260;2022-09-29T07:38:44;100319.78;;;12.33;100.00
44765;BME280;30484;52.382;5.260;2022-09-29T07:41:15;100326.47;;;13.06;100.00
44765;BME280;30484;52.382;5.260;2022-09-29T07:43:45;100320.16;;;13.33;100.00
44765;BME280;30484;52.382;5.260;2022-09-29T07:46:15;100320.81;;;13.49;100.00
44765;BME280;30484;52.382;5.260;2022-09-29T07:48:45;100318.44;;;13.44;100.00
44765;BME280;30484;52.382;5.260;2022-09-29T07:51:19;100328.97;;;13.97;100.00
44765;BME280;30484;52.382;5.260;2022-09-29T07:53:49;100320.69;;;14.01;100.00
44765;BME280;30484;52.382;5.260;2022-09-29T07:56:20;100325.25;;;14.24;100.00
44765;BME280;30484;52.382;5.260;2022-09-29T07:58:51;100334.84;;;14.40;100.00
44765;BME280;30484;52.382;5.260;2022-09-29T08:01:20;100336.38;;;14.07;100.00
44765;BME280;30484;52.382;5.260;2022-09-29T08:03:53;100345.19;;;14.33;100.00
44765;BME280;30484;52.382;5.260;2022-09-29T08:06:27;100336.41;;;14.55;100.00
44765;BME280;30484;52.382;5.260;2022-09-29T08:08:58;100342.00;;;14.76;100.00
44765;BME280;30484;52.382;5.260;2022-09-29T08:11:33;100345.44;;;14.78;100.00
44765;BME280;30484;52.382;5.260;2022-09-29T08:14:05;100340.06;;;14.78;100.00
44765;BME280;30484;52.382;5.260;2022-09-29T08:16:36;100349.66;;;14.94;100.00
44765;BME280;30484;52.382;5.260;2022-09-29T08:19:06;100338.78;;;14.95;100.00
44765;BME280;30484;52.382;5.260;2022-09-29T08:21:37;100348.00;;;14.80;100.00
44765;BME280;30484;52.382;5.260;2022-09-29T08:24:06;100346.84;;;14.95;100.00
44765;BME280;30484;52.382;5.260;2022-09-29T08:26:36;100353.94;;;14.96;100.00
44765;BME280;30484;52.382;5.260;2022-09-29T08:29:11;100351.53;;;15.16;100.00
44765;BME280;30484;52.382;5.260;2022-09-29T08:31:44;100357.34;;;15.45;100.00
44765;BME280;30484;52.382;5.260;2022-09-29T08:34:15;100365.53;;;15.55;100.00
44765;BME280;30484;52.382;5.260;2022-09-29T08:36:45;100359.16;;;15.45;100.00
44765;BME280;30484;52.382;5.260;2022-09-29T08:39:14;100366.03;;;15.71;100.00
44765;BME280;30484;52.382;5.260;2022-09-29T08:41:53;100366.00;;;15.49;100.00
44765;BME280;30484;52.382;5.260;2022-09-29T08:44:33;100366.19;;;15.81;100.00
44765;BME280;30484;52.382;5.260;2022-09-29T08:47:17;100376.56;;;15.97;100.00
44765;BME280;30484;52.382;5.260;2022-09-29T08:49:57;100383.19;;;15.93;100.00
44765;BME280;30484;52.382;5.260;2022-09-29T08:52:34;100384.84;;;15.49;100.00
44765;BME280;30484;52.382;5.260;2022-09-29T08:55:27;100385.88;;;16.04;100.00
44765;BME280;30484;52.382;5.260;2022-09-29T08:57:59;100388.81;;;16.01;100.00
44765;BME280;30484;52.382;5.260;2022-09-29T09:00:37;100385.88;;;16.16;100.00
44765;BME280;30484;52.382;5.260;2022-09-29T09:06:44;100387.78;;;16.48;100.00
44765;BME280;30484;52.382;5.260;2022-09-29T09:09:44;100398.47;;;16.82;100.00
44765;BME280;30484;52.382;5.260;2022-09-29T09:12:41;100399.22;;;16.72;100.00
44765;BME280;30484;52.382;5.260;2022-09-29T09:15:36;100397.50;;;16.39;100.00
44765;BME280;30484;52.382;5.260;2022-09-29T09:18:45;100399.53;;;16.47;100.00
44765;BME280;30484;52.382;5.260;2022-09-29T09:21:24;100399.69;;;16.89;100.00
44765;BME280;30484;52.382;5.260;2022-09-29T09:24:03;100408.13;;;17.17;100.00
44765;BME280;30484;52.382;5.260;2022-09-29T09:26:42;100398.97;;;17.08;100.00
44765;BME280;30484;52.382;5.260;2022-09-29T09:29:21;100395.19;;;17.32;100.00
44765;BME280;30484;52.382;5.260;2022-09-29T09:32:03;100389.25;;;17.38;100.00
44765;BME280;30484;52.382;5.260;2022-09-29T09:34:41;100386.47;;;16.74;100.00
44765;BME280;30484;52.382;5.260;2022-09-29T09:37:16;100388.53;;;16.82;100.00
44765;BME280;30484;52.382;5.260;2022-09-29T09:39:51;100395.03;;;17.54;100.00
44765;BME280;30484;52.382;5.260;2022-09-29T09:42:30;100394.16;;;17.54;100.00
44765;BME280;30484;52.382;5.260;2022-09-29T09:45:11;100384.53;;;17.61;100.00
44765;BME280;30484;52.382;5.260;2022-09-29T09:47:45;100390.81;;;17.19;100.00
44765;BME280;30484;52.382;5.260;2022-09-29T09:50:19;100387.81;;;17.86;100.00
44765;BME280;30484;52.382;5.260;2022-09-29T09:52:53;100392.78;;;18.21;100.00
44765;BME280;30484;52.382;5.260;2022-09-29T09:55:27;100393.38;;;18.25;100.00
44765;BME280;30484;52.382;5.260;2022-09-29T09:58:23;100384.91;;;17.99;100.00
44765;BME280;30484;52.382;5.260;2022-09-29T10:01:01;100389.56;;;18.37;100.00
44765;BME280;30484;52.382;5.260;2022-09-29T10:03:33;100377.19;;;18.44;100.00
44765;BME280;30484;52.382;5.260;2022-09-29T10:06:07;100371.97;;;18.92;100.00
44765;BME280;30484;52.382;5.260;2022-09-29T10:08:41;100374.38;;;19.14;100.00
44765;BME280;30484;52.382;5.260;2022-09-29T10:11:26;100371.38;;;18.78;100.00
44765;BME280;30484;52.382;5.260;2022-09-29T10:14:08;100368.38;;;18.82;100.00
44765;BME280;30484;52.382;5.260;2022-09-29T10:16:44;100367.75;;;19.37;100.00
44765;BME280;30484;52.382;5.260;2022-09-29T10:19:21;100369.50;;;19.18;100.00
44765;BME280;30484;52.382;5.260;2022-09-29T10:21:51;100373.22;;;19.27;100.00
44765;BME280;30484;52.382;5.260;2022-09-29T10:24:23;100359.78;;;19.35;100.00
44765;BME280;30484;52.382;5.260;2022-09-29T10:26:59;100371.09;;;19.21;100.00
44765;BME280;30484;52.382;5.260;2022-09-29T10:29:39;100366.09;;;19.26;100.00
44765;BME280;30484;52.382;5.260;2022-09-29T10:32:11;100370.16;;;19.49;100.00
44765;BME280;30484;52.382;5.260;2022-09-29T10:34:45;100368.31;;;19.50;100.00
44765;BME280;30484;52.382;5.260;2022-09-29T10:37:21;100374.44;;;19.52;100.00
44765;BME280;30484;52.382;5.260;2022-09-29T10:39:51;100369.06;;;19.90;100.00
44765;BME280;30484;52.382;5.260;2022-09-29T10:42:33;100375.53;;;19.02;100.00
44765;BME280;30484;52.382;5.260;2022-09-29T10:45:13;100373.44;;;19.53;100.00
44765;BME280;30484;52.382;5.260;2022-09-29T10:47:48;100377.91;;;19.92;100.00
44765;BME280;30484;52.382;5.260;2022-09-29T10:50:35;100376.16;;;20.28;100.00
44765;BME280;30484;52.382;5.260;2022-09-29T10:53:18;100372.59;;;20.00;100.00
44765;BME280;30484;52.382;5.260;2022-09-29T10:55:54;100375.44;;;19.98;100.00
44765;BME280;30484;52.382;5.260;2022-09-29T10:58:27;100386.34;;;19.89;100.00
44765;BME280;30484;52.382;5.260;2022-09-29T11:01:22;100382.00;;;19.48;100.00
44765;BME280;30484;52.382;5.260;2022-09-29T11:03:55;100384.25;;;19.63;100.00
44765;BME280;30484;52.382;5.260;2022-09-29T11:06:29;100385.50;;;19.78;100.00
44765;BME280;30484;52.382;5.260;2022-09-29T11:09:04;100390.03;;;19.78;100.00
44765;BME280;30484;52.382;5.260;2022-09-29T11:11:36;100398.16;;;19.78;100.00
44765;BME280;30484;52.382;5.260;2022-09-29T11:14:24;100392.22;;;19.74;100.00
44765;BME280;30484;52.382;5.260;2022-09-29T11:17:02;100392.00;;;20.23;100.00
44765;BME280;30484;52.382;5.260;2022-09-29T11:19:50;100401.72;;;20.26;100.00
44765;BME280;30484;52.382;5.260;2022-09-29T11:22:43;100397.06;;;20.36;100.00
44765;BME280;30484;52.382;5.260;2022-09-29T11:25:38;100400.28;;;20.95;100.00
44765;BME280;30484;52.382;5.260;2022-09-29T11:31:55;100401.75;;;20.16;100.00
44765;BME280;30484;52.382;5.260;2022-09-29T11:38:14;100406.47;;;20.88;100.00
44765;BME280;30484;52.382;5.260;2022-09-29T11:41:02;100393.66;;;21.16;100.00
44765;BME280;30484;52.382;5.260;2022-09-29T11:43:46;100402.72;;;20.71;100.00
44765;BME280;30484;52.382;5.260;2022-09-29T11:46:47;100402.34;;;21.01;100.00
44765;BME280;30484;52.382;5.260;2022-09-29T11:53:00;100411.94;;;20.60;100.00
44765;BME280;30484;52.382;5.260;2022-09-29T11:55:57;100416.69;;;20.30;100.00
44765;BME280;30484;52.382;5.260;2022-09-29T11:58:44;100418.28;;;20.23;100.00
44765;BME280;30484;52.382;5.260;2022-09-29T12:01:33;100428.22;;;20.32;100.00
44765;BME280;30484;52.382;5.260;2022-09-29T12:04:22;100425.69;;;20.76;100.00
44765;BME280;30484;52.382;5.260;2022-09-29T12:07:04;100429.53;;;21.64;100.00
44765;BME280;30484;52.382;5.260;2022-09-29T12:10:05;100425.56;;;20.96;100.00
44765;BME280;30484;52.382;5.260;2022-09-29T12:12:49;100432.53;;;21.52;100.00
44765;BME280;30484;52.382;5.260;2022-09-29T12:15:32;100433.66;;;21.32;100.00
44765;BME280;30484;52.382;5.260;2022-09-29T12:18:14;100434.91;;;21.37;100.00
44765;BME280;30484;52.382;5.260;2022-09-29T12:20:50;100434.97;;;21.64;100.00
44765;BME280;30484;52.382;5.260;2022-09-29T12:23:28;100437.31;;;21.85;100.00
44765;BME280;30484;52.382;5.260;2022-09-29T12:26:04;100436.69;;;21.65;100.00
44765;BME280;30484;52.382;5.260;2022-09-29T12:28:42;100432.56;;;22.21;100.00
44765;BME280;30484;52.382;5.260;2022-09-29T12:31:18;100432.25;;;21.64;100.00
44765;BME280;30484;52.382;5.260;2022-09-29T12:33:54;100423.63;;;22.03;100.00
44765;BME280;30484;52.382;5.260;2022-09-29T12:36:38;100432.00;;;21.75;100.00
44765;BME280;30484;52.382;5.260;2022-09-29T12:39:35;100432.34;;;21.54;100.00
44765;BME280;30484;52.382;5.260;2022-09-29T12:42:21;100432.13;;;22.00;100.00
44765;BME280;30484;52.382;5.260;2022-09-29T12:44:57;100437.53;;;22.26;100.00
44765;BME280;30484;52.382;5.260;2022-09-29T12:47:45;100431.38;;;22.24;100.00
44765;BME280;30484;52.382;5.260;2022-09-29T12:50:19;100431.78;;;22.03;100.00
44765;BME280;30484;52.382;5.260;2022-09-29T12:52:56;100429.28;;;22.10;100.00
44765;BME280;30484;52.382;5.260;2022-09-29T12:55:48;100430.47;;;22.41;100.00
44765;BME280;30484;52.382;5.260;2022-09-29T12:58:24;100424.72;;;22.53;100.00
44765;BME280;30484;52.382;5.260;2022-09-29T13:01:08;100431.91;;;22.62;100.00
44765;BME280;30484;52.382;5.260;2022-09-29T13:07:58;100441.38;;;22.50;100.00
44765;BME280;30484;52.382;5.260;2022-09-29T13:10:58;100435.97;;;22.58;100.00
44765;BME280;30484;52.382;5.260;2022-09-29T13:14:06;100437.44;;;23.20;100.00
44765;BME280;30484;52.382;5.260;2022-09-29T13:17:19;100440.69;;;23.15;100.00
44765;BME280;30484;52.382;5.260;2022-09-29T13:20:27;100436.25;;;23.14;100.00
44765;BME280;30484;52.382;5.260;2022-09-29T13:30:13;100444.97;;;22.50;100.00
44765;BME280;30484;52.382;5.260;2022-09-29T13:32:51;100453.63;;;22.46;100.00
44765;BME280;30484;52.382;5.260;2022-09-29T13:35:25;100459.19;;;22.36;100.00
44765;BME280;30484;52.382;5.260;2022-09-29T13:38:04;100447.22;;;22.63;100.00
44765;BME280;30484;52.382;5.260;2022-09-29T13:40:39;100448.34;;;23.20;100.00
44765;BME280;30484;52.382;5.260;2022-09-29T13:43:42;100451.94;;;23.45;100.00
44765;BME280;30484;52.382;5.260;2022-09-29T13:46:39;100450.53;;;24.38;100.00
44765;BME280;30484;52.382;5.260;2022-09-29T13:49:33;100447.34;;;24.26;100.00
44765;BME280;30484;52.382;5.260;2022-09-29T13:52:36;100449.66;;;23.98;100.00
44765;BME280;30484;52.382;5.260;2022-09-29T13:55:52;100458.72;;;23.66;100.00
44765;BME280;30484;52.382;5.260;2022-09-29T13:58:25;100458.34;;;23.85;100.00